Terminal Aerodrome Forecast
Issued by NWS

Home | Current Version | Previous Version | Text Only | Print | Product List | Glossary On
Versions: 1 2 3 4 5 6 7 8 9 10 11 12 13 14 15 16
000
FTUS46 KHNX 242327
TAFFAT
TAF
KFAT 242327Z 2500/2524 29007KT 4SM HZ SCT040 BKN150
     FM250200 31009KT 4SM -RA OVC040
     FM250600 31015KT P6SM SCT040
      TEMPO 2506/2510 BKN040=

USA.gov is the U.S. government's official web portal to all federal, state and local government web resources and services.